createdAt,value
2023-03-17T00:00:34.958Z,523.00
2023-03-17T00:04:34.961Z,519.00
2023-03-17T00:08:34.936Z,520.00
2023-03-17T00:12:34.915Z,516.00
2023-03-17T00:16:34.923Z,516.00
2023-03-17T00:20:35.057Z,516.00
2023-03-17T00:24:34.914Z,510.00
2023-03-17T00:28:34.912Z,512.00
2023-03-17T00:32:34.909Z,512.00
2023-03-17T00:36:34.880Z,505.00
2023-03-17T00:40:34.890Z,509.00
2023-03-17T00:44:34.911Z,506.00
2023-03-17T00:48:34.923Z,506.00
2023-03-17T00:52:34.915Z,511.00
2023-03-17T00:56:34.921Z,504.00
2023-03-17T01:00:34.951Z,502.00
2023-03-17T01:04:34.877Z,502.00
2023-03-17T01:08:34.957Z,502.00
2023-03-17T01:12:34.919Z,502.00
2023-03-17T01:16:34.969Z,506.00
2023-03-17T01:20:34.907Z,505.00
2023-03-17T01:24:34.912Z,501.00
2023-03-17T01:28:34.946Z,504.00
2023-03-17T01:32:34.978Z,509.00
2023-03-17T01:36:34.991Z,503.00
2023-03-17T01:40:34.988Z,510.00
2023-03-17T01:44:35.023Z,506.00
2023-03-17T01:48:35.057Z,506.00
2023-03-17T01:52:35.050Z,503.00
2023-03-17T01:56:35.101Z,505.00
2023-03-17T02:00:35.138Z,506.00
2023-03-17T02:04:35.194Z,504.00
2023-03-17T02:08:35.235Z,502.00
2023-03-17T02:12:35.262Z,503.00
2023-03-17T02:16:35.422Z,504.00
2023-03-17T02:20:35.432Z,502.00
2023-03-17T02:24:35.453Z,505.00
2023-03-17T02:28:35.555Z,506.00
2023-03-17T02:32:35.647Z,501.00
2023-03-17T02:36:35.622Z,506.00
2023-03-17T02:40:35.695Z,505.00
2023-03-17T02:44:35.702Z,507.00
2023-03-17T02:48:35.757Z,506.00
2023-03-17T02:52:35.833Z,506.00
2023-03-17T02:56:35.934Z,506.00
2023-03-17T03:00:35.947Z,504.00
2023-03-17T03:04:36.042Z,509.00
2023-03-17T03:08:36.069Z,508.00
2023-03-17T03:12:36.139Z,506.00
2023-03-17T03:16:36.196Z,508.00
2023-03-17T03:20:36.289Z,506.00
2023-03-17T03:24:36.312Z,511.00
2023-03-17T03:28:36.439Z,507.00
2023-03-17T03:32:36.496Z,503.00
2023-03-17T03:36:36.564Z,505.00
2023-03-17T03:40:36.607Z,505.00
2023-03-17T03:44:36.679Z,503.00
2023-03-17T03:48:36.742Z,505.00
2023-03-17T03:52:36.826Z,506.00
2023-03-17T03:56:36.852Z,512.00
2023-03-17T04:00:36.921Z,501.00
2023-03-17T04:04:37.091Z,511.00
2023-03-17T04:08:37.124Z,508.00
2023-03-17T04:12:37.200Z,503.00
2023-03-17T04:16:37.293Z,501.00
2023-03-17T04:20:37.414Z,506.00
2023-03-17T04:24:37.474Z,512.00
2023-03-17T04:28:37.577Z,500.00
2023-03-17T04:32:37.655Z,506.00
2023-03-17T04:36:37.723Z,505.00
2023-03-17T04:40:37.840Z,504.00
2023-03-17T04:44:37.945Z,509.00
2023-03-17T04:48:38.066Z,506.00
2023-03-17T04:52:38.156Z,506.00
2023-03-17T04:56:38.256Z,506.00
2023-03-17T05:00:38.380Z,506.00
2023-03-17T05:04:38.448Z,507.00
2023-03-17T05:08:38.578Z,503.00
2023-03-17T05:12:38.658Z,511.00
2023-03-17T05:16:38.768Z,504.00
2023-03-17T05:20:39.006Z,506.00
2023-03-17T05:24:38.993Z,505.00
2023-03-17T05:28:39.145Z,510.00
2023-03-17T05:32:39.302Z,502.00
2023-03-17T05:36:39.357Z,502.00
2023-03-17T05:40:39.479Z,509.00
2023-03-17T05:44:39.583Z,505.00
2023-03-17T05:48:39.726Z,514.00
2023-03-17T05:52:39.822Z,507.00
2023-03-17T05:56:39.938Z,510.00
2023-03-17T06:00:40.064Z,511.00
2023-03-17T06:04:40.195Z,509.00
2023-03-17T06:08:40.375Z,509.00
2023-03-17T06:12:40.496Z,508.00
2023-03-17T06:16:40.603Z,509.00
2023-03-17T06:20:40.720Z,512.00
2023-03-17T06:24:40.896Z,510.00
2023-03-17T06:28:41.106Z,511.00
2023-03-17T06:32:41.149Z,514.00
2023-03-17T06:36:41.260Z,516.00
2023-03-17T06:40:41.562Z,521.00
2023-03-17T06:44:41.565Z,542.00
2023-03-17T06:48:41.460Z,568.00
2023-03-17T06:52:41.562Z,599.00
2023-03-17T06:56:41.442Z,640.00
2023-03-17T07:00:41.569Z,622.00
2023-03-17T07:04:41.495Z,633.00
2023-03-17T07:08:41.530Z,629.00
2023-03-17T07:12:41.582Z,649.00
2023-03-17T07:16:41.685Z,622.00
2023-03-17T07:20:41.665Z,623.00
2023-03-17T07:24:41.677Z,646.00
2023-03-17T07:28:42.036Z,648.00
2023-03-17T07:32:41.763Z,612.00
2023-03-17T07:36:42.077Z,610.00
2023-03-17T07:40:41.666Z,604.00
2023-03-17T07:44:42.078Z,610.00
2023-03-17T07:48:42.140Z,588.00
2023-03-17T07:52:41.897Z,660.00
2023-03-17T07:56:42.065Z,662.00
2023-03-17T08:00:41.950Z,647.00
2023-03-17T08:04:41.889Z,656.00
2023-03-17T08:08:41.910Z,683.00
2023-03-17T08:12:41.936Z,646.00
2023-03-17T08:16:42.179Z,643.00
2023-03-17T08:20:41.968Z,651.00
2023-03-17T08:24:42.552Z,673.00
2023-03-17T08:28:42.086Z,726.00
2023-03-17T08:32:42.151Z,747.00
2023-03-17T08:36:42.020Z,762.00
2023-03-17T08:40:42.129Z,681.00
2023-03-17T08:44:44.020Z,771.00
2023-03-17T08:48:42.093Z,747.00
2023-03-17T08:52:42.103Z,813.00
2023-03-17T08:56:42.620Z,828.00
2023-03-17T09:00:42.176Z,879.00
2023-03-17T09:04:42.180Z,908.00
2023-03-17T09:08:42.217Z,974.00
2023-03-17T09:12:42.192Z,1000.00
2023-03-17T09:16:42.161Z,1077.00
2023-03-17T09:20:42.116Z,1134.00
2023-03-17T09:24:42.101Z,1181.00
2023-03-17T09:28:42.136Z,1175.00
2023-03-17T09:32:42.107Z,1243.00
2023-03-17T09:36:42.002Z,1279.00
2023-03-17T09:40:42.138Z,1219.00
2023-03-17T09:44:42.110Z,1000.00
2023-03-17T09:48:42.105Z,517.00
2023-03-17T09:52:42.132Z,569.00
2023-03-17T09:56:41.817Z,673.00
2023-03-17T10:00:41.794Z,678.00
2023-03-17T10:04:42.121Z,646.00
2023-03-17T10:08:41.918Z,767.00
2023-03-17T10:12:41.992Z,682.00
2023-03-17T10:16:42.058Z,718.00
2023-03-17T10:20:42.081Z,682.00
2023-03-17T10:24:42.648Z,651.00
2023-03-17T10:28:42.231Z,651.00
2023-03-17T10:32:42.206Z,663.00
2023-03-17T10:36:42.627Z,631.00
2023-03-17T10:40:42.607Z,715.00
2023-03-17T10:44:42.672Z,662.00
2023-03-17T10:48:42.361Z,664.00
2023-03-17T10:52:42.680Z,784.00
2023-03-17T10:56:42.673Z,813.00
2023-03-17T11:00:42.526Z,815.00
2023-03-17T11:04:42.559Z,855.00
2023-03-17T11:08:42.424Z,827.00
2023-03-17T11:12:42.663Z,792.00
2023-03-17T11:16:42.432Z,806.00
2023-03-17T11:20:42.334Z,898.00
2023-03-17T11:24:42.268Z,981.00
2023-03-17T11:28:42.259Z,1066.00
2023-03-17T11:32:42.307Z,1128.00
2023-03-17T11:36:42.690Z,1192.00
2023-03-17T11:40:42.151Z,1280.00
2023-03-17T11:44:42.179Z,1240.00
2023-03-17T11:48:42.153Z,1204.00
2023-03-17T11:52:42.153Z,1118.00
2023-03-17T11:56:41.995Z,1113.00
2023-03-17T12:00:42.896Z,1112.00
2023-03-17T12:04:42.225Z,1149.00
2023-03-17T12:08:41.891Z,1066.00
2023-03-17T12:12:41.836Z,1024.00
2023-03-17T12:16:42.201Z,963.00
2023-03-17T12:20:41.771Z,857.00
2023-03-17T12:24:42.204Z,832.00
2023-03-17T12:28:41.743Z,1006.00
2023-03-17T12:32:42.240Z,966.00
2023-03-17T12:36:42.179Z,875.00
2023-03-17T12:40:41.885Z,1030.00
2023-03-17T12:44:42.200Z,1108.00
2023-03-17T12:48:41.964Z,940.00
2023-03-17T12:52:42.036Z,904.00
2023-03-17T12:56:42.121Z,795.00
2023-03-17T13:00:42.212Z,653.00
2023-03-17T13:04:42.696Z,500.00
2023-03-17T13:08:42.499Z,515.00
2023-03-17T13:12:42.646Z,590.00
2023-03-17T13:16:42.832Z,539.00
2023-03-17T13:20:43.016Z,474.00
2023-03-17T13:24:43.263Z,473.00
2023-03-17T13:28:43.422Z,497.00
2023-03-17T13:32:43.665Z,505.00
2023-03-17T13:36:43.846Z,641.00
2023-03-17T13:40:44.013Z,646.00
2023-03-17T13:44:44.243Z,773.00
2023-03-17T13:48:44.383Z,611.00
2023-03-17T13:52:44.583Z,564.00
2023-03-17T13:56:44.682Z,494.00
2023-03-17T14:00:44.962Z,592.00
2023-03-17T14:04:45.087Z,579.00
2023-03-17T14:08:45.229Z,602.00
2023-03-17T14:12:45.452Z,541.00
2023-03-17T14:16:45.714Z,633.00
2023-03-17T14:20:45.889Z,623.00
2023-03-17T14:24:46.087Z,549.00
2023-03-17T14:28:46.275Z,545.00
2023-03-17T14:32:46.560Z,561.00
2023-03-17T14:36:46.470Z,938.00
2023-03-17T14:40:46.443Z,651.00
2023-03-17T14:44:46.374Z,1047.00
2023-03-17T14:48:46.342Z,1296.00
2023-03-17T14:52:46.308Z,1287.00
2023-03-17T14:56:46.274Z,1271.00
2023-03-17T15:00:46.300Z,1411.00
2023-03-17T15:04:46.220Z,1485.00
2023-03-17T15:08:46.327Z,1556.00
2023-03-17T15:12:46.262Z,1624.00
2023-03-17T15:16:46.228Z,1676.00
2023-03-17T15:20:46.184Z,1701.00
2023-03-17T15:24:46.175Z,1771.00
2023-03-17T15:28:46.112Z,1848.00
2023-03-17T15:32:46.127Z,1834.00
2023-03-17T15:36:46.032Z,1838.00
2023-03-17T15:40:46.007Z,1899.00
2023-03-17T15:44:45.990Z,1911.00
2023-03-17T15:48:45.937Z,1951.00
2023-03-17T15:52:45.890Z,1943.00
2023-03-17T15:56:45.944Z,1971.00
2023-03-17T16:00:46.183Z,1956.00
2023-03-17T16:04:46.465Z,1965.00
2023-03-17T16:08:46.373Z,1963.00
2023-03-17T16:12:46.795Z,1942.00
2023-03-17T16:16:46.278Z,1921.00
2023-03-17T16:20:46.266Z,1958.00
2023-03-17T16:24:46.210Z,1950.00
2023-03-17T16:28:46.371Z,1946.00
2023-03-17T16:32:46.182Z,1922.00
2023-03-17T16:36:46.120Z,1919.00
2023-03-17T16:40:46.075Z,1920.00
2023-03-17T16:44:46.116Z,1894.00
2023-03-17T16:48:46.014Z,1899.00
2023-03-17T16:52:46.021Z,1914.00
2023-03-17T16:56:46.127Z,1893.00
2023-03-17T17:00:46.250Z,1901.00
2023-03-17T17:04:46.404Z,1894.00
2023-03-17T17:08:46.456Z,1875.00
2023-03-17T17:12:46.485Z,1856.00
2023-03-17T17:16:46.524Z,1850.00
2023-03-17T17:20:46.550Z,1866.00
2023-03-17T17:24:46.537Z,1850.00
2023-03-17T17:28:46.531Z,1859.00
2023-03-17T17:32:46.514Z,1863.00
2023-03-17T17:36:46.501Z,1853.00
2023-03-17T17:40:46.553Z,1826.00
2023-03-17T17:44:46.498Z,1796.00
2023-03-17T17:48:46.523Z,1826.00
2023-03-17T17:52:47.732Z,1809.00
2023-03-17T17:56:46.555Z,1813.00
2023-03-17T18:00:46.554Z,1801.00
2023-03-17T18:04:46.577Z,1817.00
2023-03-17T18:08:46.524Z,1796.00
2023-03-17T18:12:46.534Z,1775.00
2023-03-17T18:16:46.509Z,1788.00
2023-03-17T18:20:46.506Z,1792.00
2023-03-17T18:24:46.481Z,1757.00
2023-03-17T18:28:46.415Z,1749.00
2023-03-17T18:32:46.474Z,1745.00
2023-03-17T18:36:46.460Z,1725.00
2023-03-17T18:40:46.438Z,1743.00
2023-03-17T18:44:46.437Z,1742.00
2023-03-17T18:48:46.427Z,1702.00
2023-03-17T18:52:46.413Z,1711.00
2023-03-17T18:56:46.386Z,1723.00
2023-03-17T19:00:46.585Z,1712.00
2023-03-17T19:04:46.353Z,1699.00
2023-03-17T19:08:46.393Z,1682.00
2023-03-17T19:12:46.340Z,1690.00
2023-03-17T19:16:46.352Z,1671.00
2023-03-17T19:20:46.333Z,1676.00
2023-03-17T19:24:46.328Z,1680.00
2023-03-17T19:28:46.346Z,1665.00
2023-03-17T19:32:46.317Z,1653.00
2023-03-17T19:36:46.311Z,1663.00
2023-03-17T19:40:46.240Z,1665.00
2023-03-17T19:44:46.234Z,1651.00
2023-03-17T19:48:46.207Z,1646.00
2023-03-17T19:52:46.180Z,1628.00
2023-03-17T19:56:46.146Z,1616.00
2023-03-17T20:00:46.095Z,1628.00
2023-03-17T20:04:46.134Z,1624.00
2023-03-17T20:08:46.014Z,1607.00
2023-03-17T20:12:46.013Z,1609.00
2023-03-17T20:16:45.928Z,1595.00
2023-03-17T20:20:45.927Z,1601.00
2023-03-17T20:24:45.864Z,1584.00
2023-03-17T20:28:45.827Z,1580.00
2023-03-17T20:32:45.832Z,1590.00
2023-03-17T20:36:45.748Z,1553.00
2023-03-17T20:40:45.784Z,1575.00
2023-03-17T20:44:45.705Z,1559.00
2023-03-17T20:48:45.661Z,1561.00
2023-03-17T20:52:45.627Z,1546.00
2023-03-17T20:56:45.582Z,1540.00
2023-03-17T21:00:45.573Z,1539.00
2023-03-17T21:04:45.558Z,1521.00
2023-03-17T21:08:45.488Z,1484.00
2023-03-17T21:12:45.456Z,1514.00
2023-03-17T21:16:45.401Z,1518.00
2023-03-17T21:20:45.383Z,1502.00
2023-03-17T21:24:45.372Z,1490.00
2023-03-17T21:28:45.287Z,1484.00
2023-03-17T21:32:45.309Z,1483.00
2023-03-17T21:36:45.227Z,1472.00
2023-03-17T21:40:45.219Z,1463.00
2023-03-17T21:44:45.166Z,1465.00
2023-03-17T21:48:45.140Z,1460.00
2023-03-17T21:52:45.152Z,1433.00
2023-03-17T21:56:45.227Z,1445.00
2023-03-17T22:00:46.248Z,1429.00
2023-03-17T22:04:45.338Z,1429.00
2023-03-17T22:08:45.440Z,1417.00
2023-03-17T22:12:45.506Z,1387.00
2023-03-17T22:16:45.625Z,1404.00
2023-03-17T22:20:45.610Z,1403.00
2023-03-17T22:24:45.690Z,1397.00
2023-03-17T22:28:45.820Z,1393.00
2023-03-17T22:32:45.919Z,1379.00
2023-03-17T22:36:45.934Z,1378.00
2023-03-17T22:40:45.972Z,1370.00
2023-03-17T22:44:46.051Z,1363.00
2023-03-17T22:48:46.161Z,1363.00
2023-03-17T22:52:46.201Z,1353.00
2023-03-17T22:56:46.292Z,1334.00
2023-03-17T23:00:46.388Z,1332.00
2023-03-17T23:04:46.450Z,1322.00
2023-03-17T23:08:46.527Z,1320.00
2023-03-17T23:12:46.646Z,1312.00
2023-03-17T23:16:46.763Z,1307.00
2023-03-17T23:20:46.884Z,1293.00
2023-03-17T23:24:46.977Z,1289.00
2023-03-17T23:28:47.111Z,1289.00
2023-03-17T23:32:47.207Z,1278.00
2023-03-17T23:36:47.298Z,1271.00
2023-03-17T23:40:47.433Z,1279.00
2023-03-17T23:44:47.541Z,1261.00
2023-03-17T23:48:47.656Z,1252.00
2023-03-17T23:52:47.758Z,1258.00
2023-03-17T23:56:47.882Z,1245.00
